createdAt,value
2023-04-28T00:01:22.119Z,64.30
2023-04-28T00:04:24.870Z,64.30
2023-04-28T00:07:27.682Z,64.30
2023-04-28T00:10:31.348Z,64.40
2023-04-28T00:13:33.572Z,64.50
2023-04-28T00:16:36.637Z,64.40
2023-04-28T00:19:39.051Z,64.40
2023-04-28T00:22:41.574Z,64.50
2023-04-28T00:25:43.816Z,64.50
2023-04-28T00:28:46.091Z,64.60
2023-04-28T00:31:48.417Z,64.50
2023-04-28T00:34:50.720Z,64.60
2023-04-28T00:37:52.904Z,64.70
2023-04-28T00:40:55.289Z,64.60
2023-04-28T00:43:57.847Z,64.60
2023-04-28T00:47:00.237Z,64.70
2023-04-28T00:50:02.672Z,64.90
2023-04-28T00:53:05.406Z,64.90
2023-04-28T00:56:08.331Z,65.00
2023-04-28T00:59:10.838Z,65.20
2023-04-28T01:02:18.594Z,65.20
2023-04-28T01:05:21.585Z,65.30
2023-04-28T01:08:34.904Z,65.50
2023-04-28T01:11:38.427Z,65.60
2023-04-28T01:14:46.269Z,65.70
2023-04-28T01:17:49.046Z,65.60
2023-04-28T01:20:51.737Z,65.60
2023-04-28T01:23:53.966Z,65.80
2023-04-28T01:26:56.464Z,65.70
2023-04-28T01:29:58.875Z,65.70
2023-04-28T01:33:01.540Z,65.70
2023-04-28T01:36:03.976Z,65.50
2023-04-28T01:39:06.957Z,65.60
2023-04-28T01:42:09.153Z,65.60
2023-04-28T01:45:12.296Z,65.50
2023-04-28T01:48:14.494Z,65.50
2023-04-28T01:51:16.725Z,65.40
2023-04-28T01:54:19.021Z,65.30
2023-04-28T01:57:22.432Z,65.30
2023-04-28T02:00:25.439Z,65.20
2023-04-28T02:03:28.938Z,65.20
2023-04-28T02:06:31.876Z,65.10
2023-04-28T02:09:34.634Z,65.10
2023-04-28T02:12:36.906Z,65.10
2023-04-28T02:15:43.307Z,65.10
2023-04-28T02:18:45.765Z,65.10
2023-04-28T02:21:48.086Z,65.20
2023-04-28T02:24:50.531Z,65.20
2023-04-28T02:27:52.814Z,65.10
2023-04-28T02:31:05.348Z,65.10
2023-04-28T02:34:07.628Z,65.20
2023-04-28T02:37:09.939Z,65.10
2023-04-28T02:40:12.734Z,65.20
2023-04-28T02:43:14.928Z,65.20
2023-04-28T02:46:17.305Z,65.20
2023-04-28T02:49:19.685Z,65.20
2023-04-28T02:52:21.947Z,65.20
2023-04-28T02:55:24.778Z,65.20
2023-04-28T02:58:28.448Z,65.70
2023-04-28T03:01:30.664Z,65.20
2023-04-28T03:04:32.990Z,65.30
2023-04-28T03:07:35.309Z,65.30
2023-04-28T03:10:37.536Z,65.30
2023-04-28T03:13:40.416Z,65.30
2023-04-28T03:16:43.467Z,65.80
2023-04-28T03:19:45.960Z,65.50
2023-04-28T03:22:48.231Z,65.60
2023-04-28T03:25:50.773Z,65.70
2023-04-28T03:28:53.283Z,65.80
2023-04-28T03:31:55.652Z,65.80
2023-04-28T03:34:57.896Z,65.80
2023-04-28T03:38:00.154Z,65.90
2023-04-28T03:41:02.834Z,65.90
2023-04-28T03:44:20.164Z,65.80
2023-04-28T03:47:24.061Z,65.80
2023-04-28T03:50:26.766Z,65.80
2023-04-28T03:53:30.069Z,65.70
2023-04-28T03:56:32.414Z,65.70
2023-04-28T03:59:37.125Z,65.70
2023-04-28T04:02:39.917Z,65.80
2023-04-28T04:05:42.514Z,65.70
2023-04-28T04:08:44.982Z,65.70
2023-04-28T04:11:47.245Z,65.70
2023-04-28T04:14:49.649Z,65.70
2023-04-28T04:17:52.099Z,65.70
2023-04-28T04:20:56.079Z,65.70
2023-04-28T04:23:58.465Z,65.70
2023-04-28T04:27:00.788Z,65.80
2023-04-28T04:30:08.766Z,65.70
2023-04-28T04:33:12.526Z,65.80
2023-04-28T04:36:14.765Z,65.80
2023-04-28T04:39:17.089Z,65.80
2023-04-28T04:42:25.315Z,65.90
2023-04-28T04:45:46.479Z,65.90
2023-04-28T04:48:50.030Z,66.00
2023-04-28T04:51:52.476Z,66.00
2023-04-28T04:54:56.687Z,66.00
2023-04-28T04:58:00.424Z,66.20
2023-04-28T05:01:31.799Z,66.10
2023-04-28T05:04:34.253Z,66.20
2023-04-28T05:07:37.208Z,66.20
2023-04-28T05:10:39.624Z,66.30
2023-04-28T05:13:42.450Z,66.30
2023-04-28T05:16:44.890Z,66.30
2023-04-28T05:20:08.256Z,66.40
2023-04-28T05:23:10.918Z,66.40
2023-04-28T05:26:13.790Z,66.40
2023-04-28T05:29:16.762Z,66.40
2023-04-28T05:32:19.134Z,66.40
2023-04-28T05:35:21.424Z,66.40
2023-04-28T05:38:23.993Z,66.40
2023-04-28T05:41:27.351Z,66.40
2023-04-28T05:44:31.911Z,67.10
2023-04-28T05:47:35.869Z,66.40
2023-04-28T05:50:39.099Z,66.40
2023-04-28T05:53:42.047Z,66.50
2023-04-28T05:56:44.354Z,66.50
2023-04-28T05:59:47.256Z,66.50
2023-04-28T06:02:50.299Z,66.60
2023-04-28T06:05:52.722Z,66.60
2023-04-28T06:08:55.384Z,66.70
2023-04-28T06:11:57.539Z,66.90
2023-04-28T06:15:01.020Z,66.80
2023-04-28T06:18:06.332Z,66.90
2023-04-28T06:21:08.603Z,67.00
2023-04-28T06:24:11.397Z,67.10
2023-04-28T06:27:15.215Z,67.20
2023-04-28T06:30:23.504Z,67.30
2023-04-28T06:33:26.205Z,67.40
2023-04-28T06:36:28.576Z,67.50
2023-04-28T06:39:31.255Z,67.50
2023-04-28T06:42:33.468Z,68.30
2023-04-28T06:45:43.951Z,67.60
2023-04-28T06:48:46.471Z,67.70
2023-04-28T06:51:50.156Z,67.80
2023-04-28T06:54:52.465Z,67.80
2023-04-28T06:57:55.082Z,67.90
2023-04-28T07:00:57.398Z,67.70
2023-04-28T07:04:00.070Z,67.70
2023-04-28T07:07:02.543Z,67.70
2023-04-28T07:10:05.697Z,67.70
2023-04-28T07:13:07.974Z,67.60
2023-04-28T07:16:11.390Z,67.60
2023-04-28T07:19:13.664Z,67.60
2023-04-28T07:22:16.117Z,67.60
2023-04-28T07:25:18.368Z,67.60
2023-04-28T07:28:21.039Z,67.70
2023-04-28T07:31:23.453Z,67.70
2023-04-28T07:34:25.757Z,67.80
2023-04-28T07:37:30.616Z,67.80
2023-04-28T07:40:33.550Z,67.80
2023-04-28T07:43:35.982Z,67.70
2023-04-28T07:46:38.380Z,67.80
2023-04-28T07:49:40.750Z,67.80
2023-04-28T07:52:43.365Z,67.90
2023-04-28T07:55:46.411Z,67.80
2023-04-28T07:58:48.690Z,67.80
2023-04-28T08:01:50.955Z,68.60
2023-04-28T08:04:53.615Z,67.80
2023-04-28T08:07:56.160Z,67.90
2023-04-28T08:10:59.438Z,67.90
2023-04-28T08:14:03.494Z,67.80
2023-04-28T08:17:06.014Z,67.80
2023-04-28T08:20:09.389Z,67.80
2023-04-28T08:23:11.881Z,67.70
2023-04-28T08:26:14.193Z,67.70
2023-04-28T08:29:16.487Z,67.50
2023-04-28T08:32:19.031Z,67.50
2023-04-28T08:35:21.540Z,67.40
2023-04-28T08:38:25.400Z,67.30
2023-04-28T08:41:29.643Z,67.30
2023-04-28T08:44:39.903Z,67.20
2023-04-28T08:47:46.327Z,67.20
2023-04-28T08:50:53.748Z,67.10
2023-04-28T08:54:18.930Z,66.90
2023-04-28T08:57:22.313Z,66.80
2023-04-28T09:00:25.030Z,66.70
2023-04-28T09:03:27.756Z,66.60
2023-04-28T09:06:37.780Z,66.50
2023-04-28T09:09:41.311Z,66.60
2023-04-28T09:12:43.769Z,66.40
2023-04-28T09:15:46.079Z,66.20
2023-04-28T09:19:00.662Z,66.10
2023-04-28T09:22:14.483Z,66.20
2023-04-28T09:25:22.505Z,65.90
2023-04-28T09:28:24.880Z,65.70
2023-04-28T09:31:30.135Z,65.80
2023-04-28T09:34:47.192Z,65.90
2023-04-28T09:37:59.310Z,65.90
2023-04-28T09:41:04.953Z,65.80
2023-04-28T09:44:17.763Z,65.50
2023-04-28T09:47:25.007Z,66.40
2023-04-28T09:50:27.751Z,65.60
2023-04-28T09:53:30.992Z,65.30
2023-04-28T09:56:35.319Z,65.20
2023-04-28T09:59:37.812Z,65.10
2023-04-28T10:02:43.752Z,64.90
2023-04-28T10:05:47.492Z,64.70
2023-04-28T10:08:52.392Z,64.70
2023-04-28T10:11:54.663Z,64.40
2023-04-28T10:14:58.087Z,64.40
2023-04-28T10:18:00.932Z,64.20
2023-04-28T10:21:06.246Z,64.20
2023-04-28T10:24:17.683Z,64.00
2023-04-28T10:27:20.185Z,64.10
2023-04-28T10:30:28.092Z,63.90
2023-04-28T10:33:31.483Z,64.00
2023-04-28T10:36:53.132Z,63.90
2023-04-28T10:40:33.556Z,64.30
2023-04-28T10:43:37.989Z,63.60
2023-04-28T10:47:06.991Z,63.90
2023-04-28T10:50:11.521Z,63.40
2023-04-28T10:53:13.835Z,63.20
2023-04-28T10:56:21.821Z,63.30
2023-04-28T10:59:30.437Z,63.20
2023-04-28T11:02:43.954Z,63.10
2023-04-28T11:06:30.150Z,63.30
2023-04-28T11:09:32.387Z,63.30
2023-04-28T11:12:34.790Z,63.00
2023-04-28T11:15:37.876Z,63.20
2023-04-28T11:18:56.891Z,63.20
2023-04-28T11:22:01.407Z,63.00
2023-04-28T11:25:04.177Z,62.90
2023-04-28T11:28:08.879Z,62.80
2023-04-28T11:31:12.862Z,62.90
2023-04-28T11:34:20.490Z,62.80
2023-04-28T11:37:23.202Z,62.90
2023-04-28T11:40:25.882Z,62.90
2023-04-28T11:43:46.091Z,62.90
2023-04-28T11:46:51.906Z,62.90
2023-04-28T11:49:54.176Z,62.90
2023-04-28T11:52:56.391Z,62.90
2023-04-28T11:56:10.778Z,62.80
2023-04-28T11:59:14.438Z,62.90
2023-04-28T12:02:24.593Z,62.80
2023-04-28T12:05:26.993Z,62.80
2023-04-28T12:08:29.868Z,62.90
2023-04-28T12:11:32.232Z,62.60
2023-04-28T12:14:54.534Z,62.50
2023-04-28T12:18:09.477Z,62.60
2023-04-28T12:21:22.085Z,62.30
2023-04-28T12:24:26.248Z,62.50
2023-04-28T12:27:29.379Z,62.70
2023-04-28T12:30:42.689Z,62.50
2023-04-28T12:33:45.130Z,62.50
2023-04-28T12:36:47.373Z,62.30
2023-04-28T12:39:49.808Z,62.60
2023-04-28T12:42:52.353Z,62.50
2023-04-28T12:45:55.901Z,62.60
2023-04-28T12:48:58.137Z,63.20
2023-04-28T12:52:00.412Z,62.60
2023-04-28T12:55:03.470Z,62.40
2023-04-28T12:58:05.880Z,62.50
2023-04-28T13:01:08.611Z,62.50
2023-04-28T13:04:11.071Z,62.30
2023-04-28T13:07:14.483Z,62.60
2023-04-28T13:10:17.284Z,62.40
2023-04-28T13:13:19.518Z,62.40
2023-04-28T13:16:21.842Z,62.50
2023-04-28T13:19:24.398Z,62.50
2023-04-28T13:22:26.695Z,62.50
2023-04-28T13:25:28.899Z,62.60
2023-04-28T13:28:31.160Z,62.60
2023-04-28T13:31:33.419Z,62.50
2023-04-28T13:34:35.645Z,63.20
2023-04-28T13:37:42.771Z,62.60
2023-04-28T13:40:45.124Z,62.70
2023-04-28T13:43:47.387Z,62.80
2023-04-28T13:46:49.903Z,63.50
2023-04-28T13:49:52.066Z,63.00
2023-04-28T13:52:54.372Z,62.90
2023-04-28T13:55:57.866Z,62.90
2023-04-28T13:59:00.190Z,62.90
2023-04-28T14:02:02.435Z,63.00
2023-04-28T14:05:05.387Z,63.10
2023-04-28T14:08:10.315Z,63.10
2023-04-28T14:11:12.715Z,63.10
2023-04-28T14:14:14.989Z,63.10
2023-04-28T14:17:17.440Z,63.20
2023-04-28T14:20:19.766Z,63.20
2023-04-28T14:23:22.924Z,63.30
2023-04-28T14:26:25.698Z,63.30
2023-04-28T14:29:27.912Z,63.30
2023-04-28T14:32:30.062Z,63.30
2023-04-28T14:35:32.668Z,63.30
2023-04-28T14:38:34.953Z,63.40
2023-04-28T14:41:37.224Z,63.30
2023-04-28T14:44:39.590Z,63.40
2023-04-28T14:47:41.937Z,63.50
2023-04-28T14:50:44.804Z,63.50
2023-04-28T14:53:47.217Z,63.50
2023-04-28T14:56:50.502Z,63.60
2023-04-28T14:59:53.974Z,64.30
2023-04-28T15:02:56.573Z,63.60
2023-04-28T15:05:59.350Z,63.70
2023-04-28T15:09:01.544Z,63.70
2023-04-28T15:12:03.957Z,64.50
2023-04-28T15:15:06.804Z,63.80
2023-04-28T15:18:10.337Z,63.90
2023-04-28T15:21:12.936Z,63.90
2023-04-28T15:24:16.760Z,63.90
2023-04-28T15:27:18.963Z,63.90
2023-04-28T15:30:21.146Z,63.90
2023-04-28T15:33:24.409Z,64.00
2023-04-28T15:36:27.010Z,64.00
2023-04-28T15:39:32.415Z,64.00
2023-04-28T15:42:34.948Z,64.10
2023-04-28T15:45:39.923Z,64.10
2023-04-28T15:48:42.288Z,64.10
2023-04-28T15:51:44.744Z,64.20
2023-04-28T15:54:46.889Z,64.20
2023-04-28T15:57:49.392Z,64.30
2023-04-28T16:00:51.793Z,64.40
2023-04-28T16:03:54.269Z,64.40
2023-04-28T16:06:58.926Z,64.50
2023-04-28T16:10:01.103Z,64.60
2023-04-28T16:13:05.395Z,64.70
2023-04-28T16:16:11.152Z,64.80
2023-04-28T16:19:16.192Z,64.90
2023-04-28T16:22:18.519Z,64.90
2023-04-28T16:25:20.781Z,65.10
2023-04-28T16:28:23.111Z,65.10
2023-04-28T16:31:25.382Z,65.10
2023-04-28T16:34:27.599Z,65.20
2023-04-28T16:37:30.148Z,65.30
2023-04-28T16:40:32.305Z,65.40
2023-04-28T16:43:36.416Z,65.50
2023-04-28T16:46:39.783Z,65.50
2023-04-28T16:49:42.037Z,65.50
2023-04-28T16:52:44.544Z,65.70
2023-04-28T16:55:46.750Z,65.80
2023-04-28T16:58:49.016Z,65.90
2023-04-28T17:01:51.226Z,66.00
2023-04-28T17:04:53.503Z,66.10
2023-04-28T17:07:57.131Z,66.20
2023-04-28T17:11:01.514Z,66.30
2023-04-28T17:14:07.388Z,66.40
2023-04-28T17:17:10.461Z,66.50
2023-04-28T17:20:16.793Z,66.50
2023-04-28T17:23:19.514Z,66.80
2023-04-28T17:26:21.934Z,66.80
2023-04-28T17:29:24.124Z,66.90
2023-04-28T17:32:27.229Z,67.00
2023-04-28T17:35:29.513Z,67.00
2023-04-28T17:38:32.444Z,67.30
2023-04-28T17:41:34.744Z,67.30
2023-04-28T17:44:36.910Z,67.20
2023-04-28T17:47:39.245Z,67.50
2023-04-28T17:50:41.492Z,67.60
2023-04-28T17:53:43.687Z,67.70
2023-04-28T17:56:45.823Z,67.70
2023-04-28T17:59:51.331Z,67.80
2023-04-28T18:02:55.254Z,67.90
2023-04-28T18:05:57.498Z,67.90
2023-04-28T18:08:59.779Z,67.90
2023-04-28T18:12:05.635Z,68.10
2023-04-28T18:15:08.307Z,68.30
2023-04-28T18:18:11.353Z,68.40
2023-04-28T18:21:13.734Z,68.30
2023-04-28T18:24:15.955Z,68.40
2023-04-28T18:27:18.204Z,68.50
2023-04-28T18:30:20.755Z,68.40
2023-04-28T18:33:26.092Z,68.40
2023-04-28T18:36:28.282Z,68.50
2023-04-28T18:39:30.455Z,68.40
2023-04-28T18:42:33.272Z,68.50
2023-04-28T18:45:36.931Z,68.50
2023-04-28T18:48:40.490Z,68.70
2023-04-28T18:51:42.799Z,68.60
2023-04-28T18:54:45.087Z,68.60
2023-04-28T18:57:50.314Z,68.60
2023-04-28T19:00:53.158Z,68.60
2023-04-28T19:03:55.537Z,68.80
2023-04-28T19:06:57.837Z,68.70
2023-04-28T19:10:00.226Z,68.70
2023-04-28T19:13:02.624Z,68.60
2023-04-28T19:16:05.269Z,68.70
2023-04-28T19:19:09.516Z,68.70
2023-04-28T19:22:31.581Z,68.80
2023-04-28T19:25:35.888Z,68.70
2023-04-28T19:28:38.148Z,68.80
2023-04-28T19:31:40.375Z,68.80
2023-04-28T19:34:42.677Z,68.80
2023-04-28T19:37:44.897Z,68.80
2023-04-28T19:40:47.395Z,69.00
2023-04-28T19:43:49.657Z,68.80
2023-04-28T19:46:51.945Z,68.90
2023-04-28T19:49:54.890Z,68.80
2023-04-28T19:52:57.290Z,68.90
2023-04-28T19:56:02.233Z,69.00
2023-04-28T19:59:05.068Z,68.90
2023-04-28T20:02:08.602Z,68.90
2023-04-28T20:05:10.824Z,69.10
2023-04-28T20:08:13.217Z,69.10
2023-04-28T20:11:15.344Z,69.20
2023-04-28T20:14:17.665Z,69.10
2023-04-28T20:17:20.019Z,69.10
2023-04-28T20:20:22.588Z,69.20
2023-04-28T20:23:24.821Z,69.30
2023-04-28T20:26:27.829Z,69.30
2023-04-28T20:29:31.780Z,69.30
2023-04-28T20:32:34.112Z,69.50
2023-04-28T20:35:38.111Z,69.70
2023-04-28T20:38:40.386Z,69.60
2023-04-28T20:41:42.532Z,69.60
2023-04-28T20:44:46.647Z,69.70
2023-04-28T20:47:49.018Z,69.70
2023-04-28T20:50:53.342Z,69.80
2023-04-28T20:53:55.783Z,70.00
2023-04-28T20:56:58.128Z,69.90
2023-04-28T21:00:00.374Z,69.80
2023-04-28T21:03:04.952Z,69.80
2023-04-28T21:06:07.578Z,69.80
2023-04-28T21:09:10.257Z,69.80
2023-04-28T21:12:12.416Z,69.90
2023-04-28T21:15:14.825Z,69.90
2023-04-28T21:18:17.258Z,69.90
2023-04-28T21:21:19.692Z,69.90
2023-04-28T21:24:22.132Z,69.80
2023-04-28T21:27:24.384Z,69.80
2023-04-28T21:30:27.066Z,69.90
2023-04-28T21:33:29.926Z,69.90
2023-04-28T21:36:32.789Z,69.80
2023-04-28T21:39:36.007Z,69.90
2023-04-28T21:42:38.169Z,69.90
2023-04-28T21:45:40.392Z,69.90
2023-04-28T21:48:42.603Z,70.00
2023-04-28T21:51:46.114Z,69.90
2023-04-28T21:54:48.356Z,69.90
2023-04-28T21:57:50.589Z,69.90
2023-04-28T22:00:52.877Z,69.90
2023-04-28T22:03:55.407Z,70.00
2023-04-28T22:06:57.758Z,70.10
2023-04-28T22:10:00.122Z,70.00
2023-04-28T22:13:03.267Z,70.10
2023-04-28T22:16:06.101Z,70.20
2023-04-28T22:19:08.689Z,70.20
2023-04-28T22:22:11.270Z,70.30
2023-04-28T22:25:13.723Z,70.30
2023-04-28T22:28:16.258Z,70.30
2023-04-28T22:31:18.478Z,70.30
2023-04-28T22:34:21.694Z,70.40
2023-04-28T22:37:23.938Z,70.40
2023-04-28T22:40:26.720Z,70.50
2023-04-28T22:43:29.697Z,70.50
2023-04-28T22:46:32.181Z,70.40
2023-04-28T22:49:34.632Z,70.40
2023-04-28T22:52:37.181Z,70.40
2023-04-28T22:55:39.417Z,70.60
2023-04-28T22:58:41.686Z,70.70
2023-04-28T23:01:44.013Z,70.70
2023-04-28T23:04:46.325Z,70.80
2023-04-28T23:07:49.396Z,70.70
2023-04-28T23:10:51.969Z,70.70
2023-04-28T23:13:54.285Z,70.80
2023-04-28T23:16:56.631Z,70.80
2023-04-28T23:19:58.859Z,70.80
2023-04-28T23:23:01.139Z,70.90
2023-04-28T23:26:03.741Z,71.00
2023-04-28T23:29:06.033Z,71.10
2023-04-28T23:32:08.304Z,71.30
2023-04-28T23:35:10.918Z,71.40
2023-04-28T23:38:13.280Z,71.70
2023-04-28T23:41:16.320Z,71.80
2023-04-28T23:44:18.921Z,71.90
2023-04-28T23:47:21.268Z,71.80
2023-04-28T23:50:24.130Z,71.80
2023-04-28T23:53:26.509Z,72.00
2023-04-28T23:56:29.308Z,71.90
2023-04-28T23:59:31.654Z,72.20
